createdAt,value
2022-08-02T00:00:56.903Z,101820.69
2022-08-02T00:03:24.669Z,101810.97
2022-08-02T00:05:53.423Z,101806.59
2022-08-02T00:08:21.310Z,101807.59
2022-08-02T00:10:48.117Z,101810.28
2022-08-02T00:13:14.952Z,101804.94
2022-08-02T00:15:41.695Z,101810.28
2022-08-02T00:18:08.377Z,101805.06
2022-08-02T00:20:35.113Z,101797.00
2022-08-02T00:23:01.876Z,101806.88
2022-08-02T00:25:28.649Z,101805.22
2022-08-02T00:27:55.326Z,101799.84
2022-08-02T00:30:22.172Z,101805.22
2022-08-02T00:32:48.928Z,101804.53
2022-08-02T00:35:15.624Z,101817.94
2022-08-02T00:37:42.747Z,101809.88
2022-08-02T00:40:10.425Z,101817.94
2022-08-02T00:42:38.068Z,101814.41
2022-08-02T00:45:05.162Z,101806.38
2022-08-02T00:47:31.868Z,101802.00
2022-08-02T00:49:58.556Z,101795.81
2022-08-02T00:52:25.275Z,101795.81
2022-08-02T00:54:51.978Z,101796.81
2022-08-02T00:57:18.693Z,101797.50
2022-08-02T00:59:45.443Z,101789.72
2022-08-02T01:02:12.363Z,101789.72
2022-08-02T01:04:39.230Z,101787.06
2022-08-02T01:07:13.012Z,101788.06
2022-08-02T01:09:46.783Z,101789.72
2022-08-02T01:12:14.348Z,101791.72
2022-08-02T01:14:42.940Z,101783.69
2022-08-02T01:17:19.880Z,101785.53
2022-08-02T01:19:58.521Z,101780.34
2022-08-02T01:23:01.100Z,101784.00
2022-08-02T01:25:58.199Z,101780.63
2022-08-02T01:29:00.838Z,101777.09
2022-08-02T01:31:33.225Z,101774.56
2022-08-02T01:34:03.935Z,101767.38
2022-08-02T01:36:34.612Z,101763.88
2022-08-02T01:39:02.110Z,101767.53
2022-08-02T01:41:29.818Z,101767.53
2022-08-02T01:43:58.415Z,101761.34
2022-08-02T01:46:27.486Z,101765.03
2022-08-02T01:48:57.096Z,101777.41
2022-08-02T01:51:44.394Z,101774.91
2022-08-02T01:54:13.253Z,101768.81
2022-08-02T01:56:41.339Z,101762.63
2022-08-02T01:59:12.090Z,101762.50
2022-08-02T02:01:39.165Z,101762.63
2022-08-02T02:04:08.673Z,101765.19
2022-08-02T02:06:39.072Z,101759.09
2022-08-02T02:09:06.105Z,101755.59
2022-08-02T02:12:14.713Z,101758.28
2022-08-02T02:14:19.568Z,101745.09
2022-08-02T02:16:49.763Z,101738.00
2022-08-02T02:19:21.001Z,101732.63
2022-08-02T02:21:49.298Z,101727.28
2022-08-02T02:24:15.959Z,101719.25
2022-08-02T02:26:48.642Z,101725.59
2022-08-02T02:29:22.848Z,101728.28
2022-08-02T02:31:51.797Z,101718.41
2022-08-02T02:34:25.658Z,101722.94
2022-08-02T02:36:52.976Z,101726.44
2022-08-02T02:39:23.393Z,101727.28
2022-08-02T02:41:51.966Z,101730.81
2022-08-02T02:44:20.248Z,101721.25
2022-08-02T02:46:48.521Z,101721.25
2022-08-02T02:49:16.424Z,101718.56
2022-08-02T02:51:44.605Z,101717.66
2022-08-02T02:54:29.902Z,101718.56
2022-08-02T02:56:59.801Z,101715.16
2022-08-02T02:59:27.034Z,101699.91
2022-08-02T03:01:57.352Z,101708.78
2022-08-02T03:04:25.417Z,101708.78
2022-08-02T03:06:52.192Z,101710.78
2022-08-02T03:09:19.038Z,101707.44
2022-08-02T03:11:46.254Z,101711.78
2022-08-02T03:14:13.703Z,101719.66
2022-08-02T03:16:48.429Z,101720.81
2022-08-02T03:19:16.030Z,101731.53
2022-08-02T03:21:43.919Z,101731.53
2022-08-02T03:24:11.296Z,101728.16
2022-08-02T03:26:38.270Z,101721.81
2022-08-02T03:29:10.691Z,101716.59
2022-08-02T03:31:40.358Z,101717.47
2022-08-02T03:34:07.259Z,101706.75
2022-08-02T03:36:35.535Z,101706.75
2022-08-02T03:39:03.357Z,101713.06
2022-08-02T03:41:30.242Z,101702.34
2022-08-02T03:43:57.347Z,101711.22
2022-08-02T03:46:25.351Z,101705.03
2022-08-02T03:48:52.598Z,101718.44
2022-08-02T03:51:22.715Z,101716.59
2022-08-02T03:53:49.535Z,101720.25
2022-08-02T03:56:16.879Z,101708.72
2022-08-02T03:58:48.848Z,101702.50
2022-08-02T04:01:16.216Z,101707.03
2022-08-02T04:03:43.149Z,101699.00
2022-08-02T04:06:09.858Z,101684.94
2022-08-02T04:08:38.440Z,101690.28
2022-08-02T04:11:24.910Z,101680.56
2022-08-02T04:13:52.084Z,101677.19
2022-08-02T04:16:23.920Z,101677.88
2022-08-02T04:18:54.710Z,101677.19
2022-08-02T04:21:22.421Z,101687.06
2022-08-02T04:23:50.081Z,101687.88
2022-08-02T04:26:18.765Z,101689.88
2022-08-02T04:28:54.437Z,101693.41
2022-08-02T04:31:21.522Z,101705.13
2022-08-02T04:33:48.498Z,101697.09
2022-08-02T04:36:15.345Z,101697.09
2022-08-02T04:38:57.840Z,101701.59
2022-08-02T04:41:37.383Z,101702.59
2022-08-02T04:44:10.861Z,101706.28
2022-08-02T04:46:38.219Z,101700.91
2022-08-02T04:49:05.358Z,101698.25
2022-08-02T04:51:37.740Z,101700.91
2022-08-02T04:54:10.006Z,101704.59
2022-08-02T04:56:38.115Z,101715.31
2022-08-02T04:59:05.531Z,101709.94
2022-08-02T05:01:32.500Z,101708.25
2022-08-02T05:03:59.464Z,101697.53
2022-08-02T05:06:26.175Z,101700.19
2022-08-02T05:08:53.730Z,101711.16
2022-08-02T05:11:22.197Z,101708.81
2022-08-02T05:13:57.671Z,101698.63
2022-08-02T05:16:31.195Z,101707.38
2022-08-02T05:18:59.691Z,101703.59
2022-08-02T05:21:26.553Z,101708.53
2022-08-02T05:23:53.267Z,101711.34
2022-08-02T05:26:20.067Z,101718.69
2022-08-02T05:28:46.764Z,101711.78
2022-08-02T05:31:13.697Z,101712.78
2022-08-02T05:33:40.757Z,101720.13
2022-08-02T05:36:09.603Z,101714.78
2022-08-02T05:38:37.781Z,101717.44
2022-08-02T05:41:05.833Z,101717.59
2022-08-02T05:43:32.718Z,101723.78
2022-08-02T05:45:59.565Z,101723.94
2022-08-02T05:48:31.079Z,101726.88
2022-08-02T05:51:07.009Z,101727.88
2022-08-02T05:53:56.980Z,101726.63
2022-08-02T05:56:50.447Z,101724.94
2022-08-02T05:59:33.616Z,101721.59
2022-08-02T06:02:03.974Z,101728.75
2022-08-02T06:04:42.787Z,101725.94
2022-08-02T06:07:10.527Z,101727.19
2022-08-02T06:09:38.858Z,101732.44
2022-08-02T06:12:05.802Z,101734.13
2022-08-02T06:14:33.730Z,101728.63
2022-08-02T06:17:09.597Z,101723.25
2022-08-02T06:19:51.603Z,101724.94
2022-08-02T06:22:42.028Z,101727.34
2022-08-02T06:25:11.553Z,101722.69
2022-08-02T06:27:55.793Z,101714.66
2022-08-02T06:30:22.651Z,101712.97
2022-08-02T06:32:52.155Z,101710.84
2022-08-02T06:35:19.442Z,101710.84
2022-08-02T06:37:58.932Z,101709.72
2022-08-02T06:40:58.394Z,101711.16
2022-08-02T06:43:30.883Z,101718.03
2022-08-02T06:47:09.669Z,101719.56
2022-08-02T06:48:44.340Z,101714.09
2022-08-02T06:51:11.275Z,101720.66
2022-08-02T06:53:37.963Z,101707.16
2022-08-02T06:56:04.833Z,101714.19
2022-08-02T06:58:33.957Z,101721.06
2022-08-02T07:01:00.740Z,101726.25
2022-08-02T07:03:27.646Z,101729.66
2022-08-02T07:05:54.353Z,101723.31
2022-08-02T07:08:21.236Z,101722.31
2022-08-02T07:10:48.489Z,101728.34
2022-08-02T07:13:15.172Z,101724.84
2022-08-02T07:15:49.165Z,101721.03
2022-08-02T07:18:17.392Z,101722.00
2022-08-02T07:20:44.074Z,101725.41
2022-08-02T07:23:10.837Z,101724.41
2022-08-02T07:26:03.189Z,101723.44
2022-08-02T07:28:25.084Z,101720.88
2022-08-02T07:30:52.267Z,101719.78
2022-08-02T07:33:37.330Z,101723.28
2022-08-02T07:36:08.833Z,101711.03
2022-08-02T07:38:37.499Z,101712.75
2022-08-02T07:41:04.380Z,101716.09
2022-08-02T07:43:31.586Z,101714.16
2022-08-02T07:46:00.999Z,101714.50
2022-08-02T07:48:28.183Z,101717.91
2022-08-02T07:50:54.957Z,101720.59
2022-08-02T07:53:50.196Z,101722.78
2022-08-02T07:56:08.291Z,101722.78
2022-08-02T07:58:34.945Z,101721.94
2022-08-02T08:01:01.723Z,101721.81
2022-08-02T08:03:28.581Z,101723.63
2022-08-02T08:05:55.329Z,101718.00
2022-08-02T08:08:22.039Z,101721.69
2022-08-02T08:10:49.257Z,101714.31
2022-08-02T08:13:16.465Z,101711.34
2022-08-02T08:15:52.226Z,101716.69
2022-08-02T08:18:19.792Z,101724.72
2022-08-02T08:20:46.453Z,101719.22
2022-08-02T08:23:13.141Z,101718.25
2022-08-02T08:25:41.232Z,101717.09
2022-08-02T08:28:08.270Z,101711.44
2022-08-02T08:30:34.927Z,101712.00
2022-08-02T08:33:02.019Z,101711.81
2022-08-02T08:35:28.929Z,101714.22
2022-08-02T08:37:55.703Z,101720.25
2022-08-02T08:40:22.415Z,101719.25
2022-08-02T08:42:49.197Z,101717.28
2022-08-02T08:45:18.148Z,101712.22
2022-08-02T08:47:50.254Z,101708.56
2022-08-02T08:50:25.204Z,101720.94
2022-08-02T08:53:04.874Z,101715.91
2022-08-02T08:55:33.025Z,101720.25
2022-08-02T08:58:00.671Z,101717.19
2022-08-02T09:00:27.938Z,101715.50
2022-08-02T09:02:54.729Z,101717.88
2022-08-02T09:05:21.469Z,101717.88
2022-08-02T09:07:53.160Z,101713.91
2022-08-02T09:10:45.569Z,101708.25
2022-08-02T09:13:37.985Z,101712.47
2022-08-02T09:16:14.433Z,101705.13
2022-08-02T09:18:44.879Z,101706.63
2022-08-02T09:21:12.516Z,101702.13
2022-08-02T09:23:50.185Z,101694.97
2022-08-02T09:26:19.262Z,101707.34
2022-08-02T09:28:48.483Z,101703.69
2022-08-02T09:31:20.679Z,101701.69
2022-08-02T09:34:01.006Z,101701.84
2022-08-02T09:36:37.554Z,101707.88
2022-08-02T09:39:06.415Z,101703.34
2022-08-02T09:41:34.796Z,101709.56
2022-08-02T09:44:06.160Z,101707.72
2022-08-02T09:46:39.839Z,101706.75
2022-08-02T09:49:08.469Z,101699.69
2022-08-02T09:51:40.613Z,101698.72
2022-08-02T09:54:10.085Z,101704.75
2022-08-02T09:56:48.477Z,101715.47
2022-08-02T09:59:16.911Z,101713.78
2022-08-02T10:01:51.549Z,101710.94
2022-08-02T10:04:30.056Z,101708.94
2022-08-02T10:06:59.904Z,101708.09
2022-08-02T10:09:29.108Z,101704.44
2022-08-02T10:11:56.041Z,101714.16
2022-08-02T10:14:23.697Z,101702.50
2022-08-02T10:16:50.718Z,101701.75
2022-08-02T10:19:17.450Z,101706.09
2022-08-02T10:22:12.667Z,101701.59
2022-08-02T10:24:47.541Z,101691.63
2022-08-02T10:27:20.357Z,101700.50
2022-08-02T10:29:53.570Z,101694.81
2022-08-02T10:32:23.649Z,101687.78
2022-08-02T10:35:23.205Z,101686.09
2022-08-02T10:37:58.627Z,101693.13
2022-08-02T10:40:27.139Z,101685.44
2022-08-02T10:42:55.591Z,101693.13
2022-08-02T10:45:23.227Z,101691.31
2022-08-02T10:48:01.264Z,101685.09
2022-08-02T10:50:46.745Z,101678.06
2022-08-02T10:53:39.518Z,101672.88
2022-08-02T10:56:09.269Z,101677.06
2022-08-02T10:58:36.290Z,101666.34
2022-08-02T11:01:23.365Z,101670.72
2022-08-02T11:03:50.242Z,101674.22
2022-08-02T11:06:24.778Z,101658.16
2022-08-02T11:09:32.458Z,101668.88
2022-08-02T11:12:02.450Z,101667.88
2022-08-02T11:14:29.471Z,101667.03
2022-08-02T11:16:56.262Z,101666.06
2022-08-02T11:19:27.344Z,101666.75
2022-08-02T11:22:07.979Z,101666.06
2022-08-02T11:24:37.495Z,101667.03
2022-08-02T11:27:06.268Z,101660.72
2022-08-02T11:29:43.920Z,101660.72
2022-08-02T11:32:30.532Z,101657.16
2022-08-02T11:34:59.042Z,101658.22
2022-08-02T11:37:33.423Z,101666.19
2022-08-02T11:40:13.354Z,101668.88
2022-08-02T11:42:50.688Z,101668.88
2022-08-02T11:45:21.153Z,101659.00
2022-08-02T11:47:54.323Z,101657.03
2022-08-02T11:50:30.469Z,101646.31
2022-08-02T11:52:57.588Z,101645.47
2022-08-02T11:55:28.879Z,101642.63
2022-08-02T11:58:05.633Z,101648.66
2022-08-02T12:00:32.810Z,101655.03
2022-08-02T12:02:59.767Z,101649.66
2022-08-02T12:08:19.293Z,101631.75
2022-08-02T12:10:49.622Z,101645.16
2022-08-02T12:13:16.333Z,101646.81
2022-08-02T12:15:45.459Z,101644.16
2022-08-02T12:18:38.462Z,101649.34
2022-08-02T12:21:26.737Z,101646.81
2022-08-02T12:23:59.832Z,101649.34
2022-08-02T12:26:28.435Z,101650.19
2022-08-02T12:28:57.679Z,101647.66
2022-08-02T12:31:39.880Z,101650.50
2022-08-02T12:34:31.257Z,101654.19
2022-08-02T12:37:10.326Z,101652.34
2022-08-02T12:39:42.385Z,101652.34
2022-08-02T12:42:11.759Z,101642.31
2022-08-02T12:44:51.122Z,101643.69
2022-08-02T12:47:17.856Z,101640.00
2022-08-02T12:50:11.879Z,101628.28
2022-08-02T12:52:38.815Z,101634.31
2022-08-02T12:55:20.304Z,101631.66
2022-08-02T12:57:59.355Z,101638.00
2022-08-02T13:00:37.405Z,101628.28
2022-08-02T13:03:08.549Z,101628.28
2022-08-02T13:05:57.053Z,101616.28
2022-08-02T13:08:24.759Z,101619.09
2022-08-02T13:10:51.426Z,101626.00
2022-08-02T13:13:18.154Z,101612.59
2022-08-02T13:15:49.230Z,101616.97
2022-08-02T13:18:18.587Z,101617.97
2022-08-02T13:20:45.872Z,101615.28
2022-08-02T13:23:21.003Z,101611.59
2022-08-02T13:25:48.216Z,101609.91
2022-08-02T13:28:19.790Z,101610.59
2022-08-02T13:30:47.182Z,101605.56
2022-08-02T13:33:14.534Z,101597.38
2022-08-02T13:35:41.931Z,101599.88
2022-08-02T13:38:08.691Z,101596.19
2022-08-02T13:41:03.754Z,101592.50
2022-08-02T13:43:54.870Z,101598.88
2022-08-02T13:46:18.102Z,101588.31
2022-08-02T13:48:56.238Z,101579.28
2022-08-02T13:51:22.908Z,101590.84
2022-08-02T13:53:49.655Z,101586.31
2022-08-02T13:56:16.304Z,101583.50
2022-08-02T13:58:43.051Z,101571.91
2022-08-02T14:01:09.812Z,101568.41
2022-08-02T14:04:07.497Z,101571.06
2022-08-02T14:06:23.497Z,101570.25
2022-08-02T14:08:50.177Z,101572.78
2022-08-02T14:11:16.876Z,101565.41
2022-08-02T14:13:43.847Z,101564.25
2022-08-02T14:16:10.972Z,101572.84
2022-08-02T14:18:38.022Z,101569.81
2022-08-02T14:21:04.797Z,101566.97
2022-08-02T14:23:48.981Z,101563.28
2022-08-02T14:26:27.081Z,101550.88
2022-08-02T14:28:55.108Z,101548.91
2022-08-02T14:31:21.964Z,101556.78
2022-08-02T14:33:48.754Z,101552.25
2022-08-02T14:36:15.472Z,101553.09
2022-08-02T14:38:54.840Z,101559.31
2022-08-02T14:41:21.607Z,101558.47
2022-08-02T14:44:06.241Z,101553.94
2022-08-02T14:46:37.930Z,101551.25
2022-08-02T14:49:05.336Z,101544.06
2022-08-02T14:51:32.422Z,101543.22
2022-08-02T14:54:02.710Z,101543.91
2022-08-02T14:56:30.697Z,101545.72
2022-08-02T14:58:57.537Z,101539.53
2022-08-02T15:01:26.051Z,101539.53
2022-08-02T15:03:53.223Z,101526.97
2022-08-02T15:06:20.005Z,101525.97
2022-08-02T15:08:46.782Z,101528.66
2022-08-02T15:11:13.501Z,101535.69
2022-08-02T15:13:42.505Z,101524.97
2022-08-02T15:16:09.654Z,101522.28
2022-08-02T15:18:36.382Z,101540.06
2022-08-02T15:21:14.279Z,101529.34
2022-08-02T15:23:50.324Z,101533.97
2022-08-02T15:26:16.990Z,101521.59
2022-08-02T15:28:43.664Z,101519.59
2022-08-02T15:31:10.853Z,101522.16
2022-08-02T15:33:50.186Z,101515.94
2022-08-02T15:36:17.229Z,101519.47
2022-08-02T15:38:44.702Z,101509.41
2022-08-02T15:41:11.456Z,101513.94
2022-08-02T15:44:00.178Z,101519.97
2022-08-02T15:46:25.530Z,101515.28
2022-08-02T15:48:57.941Z,101510.91
2022-08-02T15:51:26.487Z,101507.94
2022-08-02T15:53:53.180Z,101507.94
2022-08-02T15:56:21.944Z,101502.41
2022-08-02T15:58:52.958Z,101503.41
2022-08-02T16:01:24.007Z,101496.38
2022-08-02T16:03:50.969Z,101510.28
2022-08-02T16:06:17.846Z,101492.19
2022-08-02T16:08:53.532Z,101492.88
2022-08-02T16:11:21.981Z,101496.94
2022-08-02T16:13:54.244Z,101487.56
2022-08-02T16:16:23.066Z,101487.22
2022-08-02T16:18:49.802Z,101485.25
2022-08-02T16:21:16.577Z,101482.22
2022-08-02T16:24:00.790Z,101474.69
2022-08-02T16:26:32.661Z,101476.22
2022-08-02T16:29:00.070Z,101477.88
2022-08-02T16:31:26.824Z,101475.88
2022-08-02T16:33:56.240Z,101469.50
2022-08-02T16:36:24.679Z,101476.56
2022-08-02T16:38:51.528Z,101466.66
2022-08-02T16:41:18.674Z,101467.50
2022-08-02T16:43:45.433Z,101468.50
2022-08-02T16:46:12.138Z,101464.13
2022-08-02T16:48:39.231Z,101468.81
2022-08-02T16:51:13.453Z,101465.47
2022-08-02T16:54:00.430Z,101475.53
2022-08-02T16:56:28.841Z,101463.09
2022-08-02T16:58:59.608Z,101468.47
2022-08-02T17:01:28.228Z,101460.59
2022-08-02T17:04:15.565Z,101463.44
2022-08-02T17:06:47.664Z,101461.59
2022-08-02T17:10:02.402Z,101459.09
2022-08-02T17:12:06.491Z,101456.41
2022-08-02T17:14:54.552Z,101461.78
2022-08-02T17:17:34.060Z,101461.78
2022-08-02T17:20:01.504Z,101451.06
2022-08-02T17:22:28.957Z,101457.25
2022-08-02T17:24:55.976Z,101461.78
2022-08-02T17:27:22.748Z,101466.13
2022-08-02T17:29:49.684Z,101463.44
2022-08-02T17:32:18.599Z,101468.81
2022-08-02T17:34:56.694Z,101465.97
2022-08-02T17:37:28.510Z,101467.13
2022-08-02T17:39:57.075Z,101467.81
2022-08-02T17:42:24.870Z,101464.94
2022-08-02T17:45:01.035Z,101464.81
2022-08-02T17:47:42.277Z,101458.63
2022-08-02T17:50:09.905Z,101461.13
2022-08-02T17:52:52.468Z,101462.81
2022-08-02T17:55:20.637Z,101459.09
2022-08-02T17:57:57.871Z,101467.81
2022-08-02T18:00:31.167Z,101459.78
2022-08-02T18:02:57.900Z,101457.09
2022-08-02T18:05:39.731Z,101465.13
2022-08-02T18:08:13.975Z,101455.56
2022-08-02T18:10:41.325Z,101465.47
2022-08-02T18:13:08.108Z,101459.09
2022-08-02T18:15:35.932Z,101457.09
2022-08-02T18:18:02.687Z,101468.81
2022-08-02T18:20:29.454Z,101460.78
2022-08-02T18:22:58.727Z,101466.97
2022-08-02T18:25:37.835Z,101466.16
2022-08-02T18:28:10.969Z,101460.78
2022-08-02T18:30:37.654Z,101460.78
2022-08-02T18:33:58.233Z,101457.94
2022-08-02T18:35:52.601Z,101460.09
2022-08-02T18:38:22.157Z,101461.13
2022-08-02T18:40:50.808Z,101458.28
2022-08-02T18:43:18.518Z,101456.44
2022-08-02T18:46:05.512Z,101458.09
2022-08-02T18:48:31.881Z,101458.44
2022-08-02T18:50:58.565Z,101462.81
2022-08-02T18:53:39.182Z,101457.25
2022-08-02T18:56:19.134Z,101455.41
2022-08-02T18:58:48.356Z,101458.09
2022-08-02T19:01:31.575Z,101452.72
2022-08-02T19:04:00.505Z,101459.09
2022-08-02T19:06:27.393Z,101456.44
2022-08-02T19:09:04.944Z,101462.81
2022-08-02T19:11:38.295Z,101455.75
2022-08-02T19:14:05.197Z,101454.75
2022-08-02T19:16:37.372Z,101461.97
2022-08-02T19:19:05.932Z,101462.81
2022-08-02T19:22:17.525Z,101458.44
2022-08-02T19:24:19.577Z,101459.44
2022-08-02T19:26:51.668Z,101463.63
2022-08-02T19:29:24.975Z,101465.47
2022-08-02T19:32:40.289Z,101468.16
2022-08-02T19:34:53.932Z,101463.09
2022-08-02T19:37:21.300Z,101467.50
2022-08-02T19:39:48.860Z,101457.44
2022-08-02T19:42:17.074Z,101461.97
2022-08-02T19:44:45.876Z,101465.31
2022-08-02T19:47:19.112Z,101469.66
2022-08-02T19:49:49.027Z,101472.34
2022-08-02T19:52:21.268Z,101475.88
2022-08-02T19:54:55.874Z,101470.50
2022-08-02T19:57:39.220Z,101473.19
2022-08-02T20:00:11.434Z,101481.94
2022-08-02T20:02:38.597Z,101481.94
2022-08-02T20:05:16.495Z,101487.28
2022-08-02T20:07:56.187Z,101487.28
2022-08-02T20:10:24.676Z,101481.09
2022-08-02T20:12:53.686Z,101483.59
2022-08-02T20:15:21.860Z,101491.47
2022-08-02T20:17:49.191Z,101486.94
2022-08-02T20:20:17.150Z,101494.00
2022-08-02T20:23:32.836Z,101498.53
2022-08-02T20:25:51.583Z,101493.16
2022-08-02T20:28:22.046Z,101502.22
2022-08-02T20:30:49.162Z,101502.69
2022-08-02T20:33:21.531Z,101503.88
2022-08-02T20:35:49.690Z,101505.38
2022-08-02T20:38:16.659Z,101504.41
2022-08-02T20:40:44.988Z,101499.72
2022-08-02T20:43:11.694Z,101505.75
2022-08-02T20:45:40.460Z,101498.69
2022-08-02T20:48:07.440Z,101499.38
2022-08-02T20:50:50.879Z,101509.97
2022-08-02T20:53:24.038Z,101503.72
2022-08-02T20:55:53.684Z,101505.44
2022-08-02T20:58:20.566Z,101505.44
2022-08-02T21:00:56.798Z,101505.44
2022-08-02T21:03:23.587Z,101499.22
2022-08-02T21:05:54.969Z,101502.75
2022-08-02T21:08:22.875Z,101505.44
2022-08-02T21:10:52.506Z,101494.69
2022-08-02T21:13:26.229Z,101495.53
2022-08-02T21:15:55.473Z,101494.69
2022-08-02T21:18:39.910Z,101496.69
2022-08-02T21:21:09.298Z,101493.00
2022-08-02T21:23:37.203Z,101495.00
2022-08-02T21:26:09.155Z,101495.00
2022-08-02T21:28:44.919Z,101497.03
2022-08-02T21:31:15.048Z,101491.66
2022-08-02T21:33:56.677Z,101490.00
2022-08-02T21:36:33.486Z,101497.03
2022-08-02T21:39:08.875Z,101491.66
2022-08-02T21:41:39.373Z,101495.34
2022-08-02T21:44:24.049Z,101493.69
2022-08-02T21:46:53.782Z,101493.69
2022-08-02T21:49:40.960Z,101493.69
2022-08-02T21:52:10.243Z,101497.34
2022-08-02T21:54:40.362Z,101492.97
2022-08-02T21:57:15.296Z,101491.97
2022-08-02T21:59:45.427Z,101501.88
2022-08-02T22:02:13.108Z,101501.03
2022-08-02T22:04:47.914Z,101496.50
2022-08-02T22:07:28.357Z,101494.00
2022-08-02T22:10:06.307Z,101499.34
2022-08-02T22:12:33.045Z,101499.34
2022-08-02T22:15:00.656Z,101502.03
2022-08-02T22:17:49.931Z,101500.38
2022-08-02T22:20:20.357Z,101500.38
2022-08-02T22:22:52.185Z,101503.03
2022-08-02T22:25:26.956Z,101503.03
2022-08-02T22:28:35.896Z,101503.03
2022-08-02T22:30:54.068Z,101510.25
2022-08-02T22:33:42.110Z,101503.03
2022-08-02T22:36:13.753Z,101514.13
2022-08-02T22:38:44.580Z,101512.09
2022-08-02T22:41:15.072Z,101510.44
2022-08-02T22:43:42.623Z,101510.44
2022-08-02T22:46:10.183Z,101517.47
2022-08-02T22:48:42.577Z,101514.13
2022-08-02T22:51:11.081Z,101506.06
2022-08-02T22:53:39.360Z,101514.97
2022-08-02T22:56:06.092Z,101510.59
2022-08-02T22:58:32.902Z,101516.81
2022-08-02T23:01:00.000Z,101519.47
2022-08-02T23:03:27.218Z,101512.41
2022-08-02T23:05:54.108Z,101512.41
2022-08-02T23:08:20.865Z,101517.78
2022-08-02T23:10:47.665Z,101511.56
2022-08-02T23:13:14.364Z,101519.47
2022-08-02T23:16:00.906Z,101519.63
2022-08-02T23:18:46.929Z,101519.78
2022-08-02T23:21:13.918Z,101519.97
2022-08-02T23:24:00.583Z,101519.09
2022-08-02T23:26:27.617Z,101522.13
2022-08-02T23:28:54.542Z,101513.75
2022-08-02T23:31:28.901Z,101513.59
2022-08-02T23:34:03.623Z,101515.59
2022-08-02T23:36:32.852Z,101521.81
2022-08-02T23:39:00.030Z,101526.34
2022-08-02T23:41:27.475Z,101517.44
2022-08-02T23:44:12.421Z,101514.75
2022-08-02T23:46:44.778Z,101518.47
2022-08-02T23:49:12.089Z,101530.84
2022-08-02T23:51:38.907Z,101521.13
2022-08-02T23:54:05.853Z,101525.50
2022-08-02T23:56:32.579Z,101534.53
2022-08-02T23:58:59.331Z,101527.34
